Time;durP1;ratioP1;P1;durP2;ratioP2;P2;SDS_P1;SDS_P2;PMS_P1;PMS_P2;Temp;Humidity;BMP_temperature;BMP_pressure;BME280_temperature;BME280_humidity;BME280_pressure;Samples;Min_cycle;Max_cycle;Signal;HPM_P1;HPM_P2
2021/07/21 00:01:41;;;;;;;15.07;7.73;;;;;;;22.49;75.13;99689.18;126355;1099;104134;-76
2021/07/21 00:04:13;;;;;;;14.07;8.00;;;;;;;22.45;75.24;99683.02;126317;1099;104242;-77
2021/07/21 00:06:44;;;;;;;15.13;8.33;;;;;;;22.43;75.44;99691.07;126372;1099;104156;-77
2021/07/21 00:09:17;;;;;;;14.60;7.93;;;;;;;22.41;75.23;99687.57;126293;1099;104242;-78
2021/07/21 00:14:32;;;;;;;18.60;7.97;;;;;;;22.45;75.67;99677.66;126331;1097;104140;-76
2021/07/21 00:17:06;;;;;;;21.07;9.03;;;;;;;22.44;75.94;99670.59;126304;1099;104175;-76
2021/07/21 00:22:21;;;;;;;18.00;8.63;;;;;;;22.37;75.43;99675.19;126252;1099;104143;-77
2021/07/21 00:24:52;;;;;;;16.00;8.03;;;;;;;22.36;75.92;99668.11;126344;1099;104368;-77
2021/07/21 00:27:23;;;;;;;16.00;8.20;;;;;;;22.35;75.47;99668.16;126324;1099;104146;-77
2021/07/21 00:29:54;;;;;;;15.87;8.97;;;;;;;22.34;75.55;99672.59;126234;1099;110686;-76
2021/07/21 00:32:24;;;;;;;15.80;7.93;;;;;;;22.35;75.92;99673.50;126350;1099;104140;-77
2021/07/21 00:34:55;;;;;;;15.13;7.87;;;;;;;22.34;75.58;99672.59;126321;1099;104216;-77
2021/07/21 00:37:26;;;;;;;18.13;8.20;;;;;;;22.35;75.75;99676.17;126322;1098;104149;-77
2021/07/21 00:39:57;;;;;;;16.40;8.67;;;;;;;22.38;76.26;99676.09;126293;1098;105492;-77
2021/07/21 00:42:27;;;;;;;16.80;8.40;;;;;;;22.40;75.75;99669.77;126284;1099;104198;-77
2021/07/21 00:44:58;;;;;;;17.17;8.53;;;;;;;22.40;76.24;99672.44;126393;1099;104140;-77
2021/07/21 00:47:29;;;;;;;16.73;8.73;;;;;;;22.38;76.24;99676.09;126375;1099;104206;-77
2021/07/21 00:50:00;;;;;;;18.97;8.53;;;;;;;22.37;76.65;99674.33;126239;1098;104312;-77
2021/07/21 00:52:32;;;;;;;18.67;9.10;;;;;;;22.39;76.96;99673.37;126317;1099;104185;-78
2021/07/21 00:55:03;;;;;;;20.15;8.95;;;;;;;22.44;76.57;99681.28;126336;1099;104249;-76
2021/07/21 00:57:34;;;;;;;21.30;9.73;;;;;;;22.46;75.89;99679.44;126339;1098;104192;-77
2021/07/21 01:00:08;;;;;;;17.03;9.07;;;;;;;22.49;76.16;99673.14;126225;1099;104193;-77
2021/07/21 01:02:52;;;;;;;17.40;9.47;;;;;;;22.51;76.33;99672.16;126315;1099;104133;-77
2021/07/21 01:05:28;;;;;;;16.63;8.93;;;;;;;22.52;76.55;99667.71;126317;1098;104188;-77
2021/07/21 01:08:01;;;;;;;16.30;9.53;;;;;;;22.53;76.87;99665.00;126326;1099;104158;-77
2021/07/21 01:10:34;;;;;;;18.52;9.23;;;;;;;22.51;76.70;99658.80;126326;1098;104206;-77
2021/07/21 01:13:12;;;;;;;16.20;8.63;;;;;;;22.51;76.55;99661.47;126324;1099;104149;-77
2021/07/21 01:15:48;;;;;;;19.23;9.00;;;;;;;22.53;76.26;99664.09;126317;1098;104171;-77
2021/07/21 01:18:26;;;;;;;19.27;9.33;;;;;;;22.54;77.09;99664.06;126365;1099;104217;-77
2021/07/21 01:21:19;;;;;;;19.77;8.83;;;;;;;22.54;77.16;99664.06;126255;1099;110552;-77
2021/07/21 01:24:13;;;;;;;19.90;9.67;;;;;;;22.51;76.57;99665.95;126324;1099;104140;-78
2021/07/21 01:26:49;;;;;;;17.37;7.87;;;;;;;22.46;77.37;99673.22;126337;1099;104159;-77
2021/07/21 01:29:28;;;;;;;10.50;5.30;;;;;;;22.37;77.21;99679.67;126265;1099;104278;-75
2021/07/21 01:32:01;;;;;;;7.27;4.03;;;;;;;22.20;77.03;99683.60;126336;1099;104169;-76
2021/07/21 01:34:35;;;;;;;6.20;3.13;;;;;;;22.10;77.25;99682.09;126302;1099;104156;-76
2021/07/21 01:37:07;;;;;;;;;;;;;;;22.00;77.63;99680.55;126392;1099;104150;-76
2021/07/21 01:39:43;;;;;;;4.20;2.77;;;;;;;21.85;77.82;99692.50;126307;1099;104249;-76
2021/07/21 01:42:19;;;;;;;3.93;2.20;;;;;;;21.71;77.77;99696.36;126313;1099;104149;-76
2021/07/21 01:44:53;;;;;;;2.23;1.70;;;;;;;21.59;77.10;99691.29;126339;1099;104137;-77
2021/07/21 01:47:24;;;;;;;4.25;2.20;;;;;;;21.48;76.79;99691.49;126315;1099;104255;-76
2021/07/21 01:50:00;;;;;;;4.13;2.40;;;;;;;21.36;76.79;99702.43;126270;1099;104813;-77
2021/07/21 01:52:33;;;;;;;2.65;1.95;;;;;;;21.29;76.10;99703.49;126286;1099;104150;-76
2021/07/21 01:55:07;;;;;;;3.08;2.27;;;;;;;21.22;76.54;99712.52;126310;1099;104249;-76
2021/07/21 01:57:46;;;;;;;4.70;2.57;;;;;;;21.08;77.43;99711.00;126362;1099;104208;-76
2021/07/21 02:00:38;;;;;;;5.70;3.03;;;;;;;20.92;77.69;99721.09;126263;1099;104169;-75
2021/07/21 02:03:11;;;;;;;4.07;2.80;;;;;;;20.82;76.54;99722.20;126369;1099;104248;-77
2021/07/21 02:06:00;;;;;;;7.77;3.03;;;;;;;20.76;77.28;99722.31;126318;1098;104171;-77
2021/07/21 02:08:34;;;;;;;4.00;2.90;;;;;;;20.64;76.58;99723.38;126306;1099;104153;-76
2021/07/21 02:11:14;;;;;;;5.77;3.03;;;;;;;20.57;76.96;99724.38;126280;1099;105223;-76
2021/07/21 02:13:46;;;;;;;5.45;2.95;;;;;;;20.52;77.50;99726.25;126321;1099;104139;-75
2021/07/21 02:16:23;;;;;;;5.80;3.23;;;;;;;20.43;76.60;99727.31;126323;1099;104131;-75
2021/07/21 02:18:57;;;;;;;6.37;3.60;;;;;;;20.38;76.67;99731.81;126358;1099;104240;-75
2021/07/21 02:21:37;;;;;;;9.17;3.87;;;;;;;20.31;76.95;99717.72;126244;1099;104591;-75
2021/07/21 02:24:10;;;;;;;7.07;3.57;;;;;;;20.26;76.90;99723.12;126316;1098;104136;-76
2021/07/21 02:26:52;;;;;;;5.63;3.10;;;;;;;20.20;77.04;99725.02;126328;1098;104223;-76
2021/07/21 02:29:23;;;;;;;6.73;3.30;;;;;;;20.13;77.03;99724.22;126340;1097;104245;-76
2021/07/21 02:32:11;;;;;;;5.47;3.07;;;;;;;20.11;77.92;99721.58;126290;1097;104146;-76
2021/07/21 02:34:44;;;;;;;6.60;3.40;;;;;;;20.11;77.47;99736.69;126259;1099;104200;-76
2021/07/21 02:37:18;;;;;;;7.33;3.03;;;;;;;20.08;77.17;99736.73;126333;1099;104153;-76
2021/07/21 02:39:52;;;;;;;5.47;3.13;;;;;;;20.05;76.72;99732.33;126298;1097;104152;-75
2021/07/21 02:42:23;;;;;;;5.03;3.12;;;;;;;20.06;77.24;99744.75;126289;1099;104175;-75
2021/07/21 02:44:54;;;;;;;5.20;2.50;;;;;;;20.07;77.38;99748.28;126327;1099;104150;-76
2021/07/21 02:47:26;;;;;;;4.10;2.73;;;;;;;20.04;77.96;99740.34;126337;1098;104224;-76
2021/07/21 02:50:01;;;;;;;6.67;3.07;;;;;;;19.98;77.49;99728.02;126336;1099;104155;-75
2021/07/21 02:52:40;;;;;;;5.57;2.87;;;;;;;19.94;77.36;99739.60;126283;1099;104224;-76
2021/07/21 02:55:29;;;;;;;3.47;2.60;;;;;;;19.92;76.93;99728.97;126325;1099;104245;-77
2021/07/21 02:58:10;;;;;;;3.10;2.37;;;;;;;19.91;77.69;99729.91;126335;1099;104156;-76
2021/07/21 03:00:45;;;;;;;3.60;2.20;;;;;;;19.94;77.27;99734.28;126255;1099;104239;-76
2021/07/21 03:03:22;;;;;;;2.63;1.80;;;;;;;19.97;76.89;99728.04;126342;1099;104143;-76
2021/07/21 03:05:57;;;;;;;2.03;1.80;;;;;;;19.97;77.14;99733.36;126312;1098;104152;-76
2021/07/21 03:08:36;;;;;;;3.00;1.80;;;;;;;20.01;76.75;99735.09;126321;1099;104249;-75
2021/07/21 03:11:26;;;;;;;3.57;2.00;;;;;;;20.01;77.02;99741.28;126244;1099;104229;-77
2021/07/21 03:14:02;;;;;;;3.37;1.83;;;;;;;20.01;76.28;99735.95;126339;1099;104185;-76
2021/07/21 03:16:45;;;;;;;3.08;1.70;;;;;;;20.05;76.36;99742.98;126356;1099;104172;-77
2021/07/21 03:19:26;;;;;;;2.63;1.83;;;;;;;20.06;76.31;99747.41;126337;1099;104147;-76
2021/07/21 03:22:01;;;;;;;2.30;2.10;;;;;;;20.08;76.40;99758.04;126302;1099;104165;-76
2021/07/21 03:24:32;;;;;;;2.77;2.30;;;;;;;20.08;76.61;99742.06;126344;1099;104168;-76
2021/07/21 03:27:14;;;;;;;2.47;2.27;;;;;;;20.06;76.34;99750.07;126323;1099;104332;-76
2021/07/21 03:30:06;;;;;;;4.40;2.20;;;;;;;20.07;76.26;99745.61;126336;1099;104144;-77
2021/07/21 03:32:48;;;;;;;4.17;2.80;;;;;;;20.08;75.96;99752.71;126294;1099;104143;-76
2021/07/21 03:35:24;;;;;;;5.57;2.80;;;;;;;20.04;75.74;99750.98;126329;1099;104162;-77
2021/07/21 03:37:56;;;;;;;5.33;3.00;;;;;;;20.05;75.58;99760.75;126331;1099;104149;-77
2021/07/21 03:40:27;;;;;;;;;;;;;;;20.02;75.60;99751.02;126326;1099;104156;-76
2021/07/21 03:43:18;;;;;;;7.47;3.30;;;;;;;20.05;76.35;99758.95;126305;1099;104334;-77
2021/07/21 03:46:02;;;;;;;8.83;3.75;;;;;;;20.04;75.65;99751.89;126327;1099;104149;-76
2021/07/21 03:48:35;;;;;;;10.43;4.13;;;;;;;20.04;76.29;99765.20;126326;1099;104130;-77
2021/07/21 03:51:15;;;;;;;7.87;4.60;;;;;;;20.07;75.86;99767.82;126346;1099;104133;-77
2021/07/21 03:54:08;;;;;;;5.70;3.50;;;;;;;20.13;76.09;99763.30;126266;1099;104140;-77
2021/07/21 03:56:44;;;;;;;9.63;3.93;;;;;;;20.19;76.05;99760.54;126316;1099;104133;-76
2021/07/21 03:59:18;;;;;;;8.97;3.73;;;;;;;20.20;75.13;99765.84;126307;1099;104155;-77
2021/07/21 04:01:51;;;;;;;7.30;4.30;;;;;;;20.13;74.96;99764.16;126355;1099;104160;-77
2021/07/21 04:04:23;;;;;;;7.60;4.03;;;;;;;20.13;75.13;99771.28;126313;1099;119099;-78
2021/07/21 04:06:57;;;;;;;8.37;4.20;;;;;;;20.17;75.68;99765.02;126311;1099;101809;-78
2021/07/21 04:09:36;;;;;;;10.43;4.10;;;;;;;20.17;76.09;99767.69;126275;1099;104146;-78
2021/07/21 04:12:11;;;;;;;7.90;3.93;;;;;;;20.13;75.04;99772.16;126325;1099;104235;-78
2021/07/21 04:14:55;;;;;;;8.17;3.93;;;;;;;20.13;75.64;99777.48;126220;1098;104245;-77
2021/07/21 04:17:45;;;;;;;9.73;4.03;;;;;;;20.08;75.39;99764.23;126212;1099;104668;-77
2021/07/21 04:20:19;;;;;;;8.17;4.27;;;;;;;20.06;75.22;99787.36;126190;1099;101814;-77
2021/07/21 04:22:51;;;;;;;7.87;4.10;;;;;;;19.96;75.37;99784.84;126127;1100;104245;-77
2021/07/21 04:25:25;;;;;;;8.65;4.17;;;;;;;19.92;75.43;99784.89;126263;1099;104163;-76
2021/07/21 04:28:02;;;;;;;7.63;3.90;;;;;;;19.90;74.94;99791.16;126220;1099;104274;-77
2021/07/21 04:30:36;;;;;;;8.10;4.20;;;;;;;19.85;75.03;99787.66;126351;1099;104195;-77
2021/07/21 04:33:09;;;;;;;7.23;3.43;;;;;;;19.79;75.00;99803.70;126252;1099;104143;-77
2021/07/21 04:35:41;;;;;;;9.60;4.13;;;;;;;19.72;74.93;99805.55;126340;1099;104139;-77
2021/07/21 04:38:17;;;;;;;10.03;3.93;;;;;;;19.62;74.87;99802.13;126323;1099;104149;-77
2021/07/21 04:41:09;;;;;;;6.63;3.90;;;;;;;19.54;75.27;99807.54;126356;1099;104197;-76
2021/07/21 04:43:53;;;;;;;8.53;4.23;;;;;;;19.54;75.33;99804.88;126289;1099;104252;-78
2021/07/21 04:46:36;;;;;;;7.85;4.15;;;;;;;19.55;74.23;99800.43;126348;1099;104159;-77
2021/07/21 04:49:11;;;;;;;8.77;3.80;;;;;;;19.53;74.95;99804.90;126332;1099;104140;-77
2021/07/21 04:51:43;;;;;;;7.57;3.90;;;;;;;19.51;75.05;99807.58;126321;1099;104172;-75
2021/07/21 04:54:23;;;;;;;8.43;4.10;;;;;;;19.51;75.13;99809.34;126272;1099;104251;-77
2021/07/21 04:56:57;;;;;;;7.67;4.20;;;;;;;19.52;74.60;99804.00;126274;1099;104243;-78
2021/07/21 04:59:35;;;;;;;8.37;3.93;;;;;;;19.57;75.08;99804.84;126247;1099;104762;-80
2021/07/21 05:02:07;;;;;;;8.43;3.80;;;;;;;19.60;74.58;99811.02;126229;1099;104191;-77
2021/07/21 05:04:40;;;;;;;6.53;4.10;;;;;;;19.58;74.61;99814.56;126287;1099;104229;-78
2021/07/21 05:07:23;;;;;;;7.63;4.00;;;;;;;19.60;74.71;99806.56;126342;1099;104576;-78
2021/07/21 05:10:03;;;;;;;8.07;3.97;;;;;;;19.61;74.06;99804.81;126257;1099;104230;-80
2021/07/21 05:12:44;;;;;;;9.40;4.13;;;;;;;19.57;74.32;99798.62;126272;1099;104321;-76
2021/07/21 05:15:16;;;;;;;8.25;3.90;;;;;;;19.57;74.56;99801.28;126237;1099;104232;-77
2021/07/21 05:17:51;;;;;;;6.80;3.77;;;;;;;19.63;73.92;99822.49;126325;1099;104245;-76
2021/07/21 05:20:36;;;;;;;8.50;3.73;;;;;;;19.62;73.96;99814.53;126330;1099;104255;-77
2021/07/21 05:23:13;;;;;;;8.27;3.63;;;;;;;19.54;74.17;99815.52;126277;1099;104143;-77
2021/07/21 05:25:59;;;;;;;7.17;3.37;;;;;;;19.57;73.77;99815.48;126165;1099;104284;-77
2021/07/21 05:28:40;;;;;;;7.37;3.60;;;;;;;19.60;74.06;99814.55;126284;1099;104143;-75
2021/07/21 05:31:32;;;;;;;5.30;3.20;;;;;;;19.53;73.74;99816.41;126320;1097;104592;-77
2021/07/21 05:34:23;;;;;;;8.25;3.25;;;;;;;19.55;74.18;99827.04;126268;1099;104209;-77
2021/07/21 05:36:58;;;;;;;6.40;3.87;;;;;;;19.55;74.17;99827.91;126344;1099;104252;-77
2021/07/21 05:39:38;;;;;;;9.27;3.40;;;;;;;19.58;73.98;99821.68;126156;1099;104137;-77
2021/07/21 05:42:09;;;;;;;4.43;3.30;;;;;;;19.63;73.48;99814.52;126161;1099;104178;-77
2021/07/21 05:44:43;;;;;;;6.15;3.52;;;;;;;19.67;73.52;99832.22;126155;1099;104142;-78
2021/07/21 05:47:20;;;;;;;6.47;3.30;;;;;;;19.67;73.84;99826.02;126222;1099;104299;-76
2021/07/21 05:49:51;;;;;;;4.63;3.37;;;;;;;19.66;73.98;99827.78;126280;1099;104206;-76
2021/07/21 05:52:42;;;;;;;4.10;3.00;;;;;;;19.65;73.90;99823.38;126171;1099;104233;-76
2021/07/21 05:55:15;;;;;;;7.63;3.33;;;;;;;19.69;73.73;99816.23;126052;1099;104206;-76
2021/07/21 05:57:50;;;;;;;7.63;3.50;;;;;;;19.74;73.19;99827.69;126145;1099;104246;-77
2021/07/21 06:00:29;;;;;;;7.93;3.30;;;;;;;19.77;73.65;99832.14;126235;1096;104192;-78
2021/07/21 06:03:00;;;;;;;5.93;3.20;;;;;;;19.77;73.47;99829.47;126358;1099;104227;-78
2021/07/21 06:05:53;;;;;;;8.40;3.50;;;;;;;19.80;73.97;99832.09;126182;1097;104459;-76
2021/07/21 06:08:46;;;;;;;5.37;3.17;;;;;;;19.85;73.06;99824.92;126250;1099;104139;-77
2021/07/21 06:11:23;;;;;;;7.83;3.07;;;;;;;19.88;73.06;99830.20;126146;1099;104163;-77
2021/07/21 06:13:59;;;;;;;6.20;3.50;;;;;;;19.89;72.87;99838.17;126096;1099;104683;-76
2021/07/21 06:16:33;;;;;;;6.00;3.60;;;;;;;19.95;74.06;99831.90;126064;1099;104345;-77
2021/07/21 06:19:04;;;;;;;;;;;;;;;19.95;73.60;99828.37;126170;1099;104140;-78
2021/07/21 06:21:35;;;;;;;8.53;3.70;;;;;;;20.02;73.88;99824.70;126174;1098;104291;-76
2021/07/21 06:24:23;;;;;;;5.43;3.47;;;;;;;20.10;72.82;99838.78;126101;1099;104198;-76
2021/07/21 06:26:59;;;;;;;5.60;3.33;;;;;;;20.15;72.87;99833.39;125826;1099;104335;-77
2021/07/21 06:29:46;;;;;;;6.07;3.17;;;;;;;20.16;72.97;99830.70;126108;1099;104273;-77
2021/07/21 06:32:22;;;;;;;7.83;3.20;;;;;;;20.15;73.09;99828.97;126157;1099;104193;-77
2021/07/21 06:34:54;;;;;;;7.43;3.47;;;;;;;20.16;72.87;99832.50;126225;1099;104172;-76
2021/07/21 06:37:27;;;;;;;6.47;3.17;;;;;;;20.16;72.75;99833.37;125992;1099;104178;-76
2021/07/21 06:40:01;;;;;;;6.13;3.10;;;;;;;20.22;73.15;99835.08;125367;1099;104617;-78
2021/07/21 06:42:34;;;;;;;5.47;3.70;;;;;;;20.25;72.83;99829.70;126179;1099;104165;-77
2021/07/21 06:45:08;;;;;;;6.60;3.30;;;;;;;20.29;72.70;99847.41;125363;1099;104300;-76
2021/07/21 06:47:45;;;;;;;5.17;3.53;;;;;;;20.28;72.29;99834.98;126370;1097;104191;-76
2021/07/21 06:50:40;;;;;;;8.63;3.63;;;;;;;20.24;72.77;99839.48;126200;1099;104200;-76
2021/07/21 06:53:12;;;;;;;9.97;3.87;;;;;;;20.23;71.73;99827.06;126192;1099;104254;-77
2021/07/21 06:56:03;;;;;;;8.30;3.67;;;;;;;20.27;71.83;99833.22;126174;1099;104140;-76
2021/07/21 06:58:35;;;;;;;5.73;3.57;;;;;;;20.30;71.75;99835.84;126234;1097;104306;-76
2021/07/21 07:01:12;;;;;;;5.80;3.80;;;;;;;20.35;72.19;99830.44;126179;1098;104326;-77
2021/07/21 07:04:03;;;;;;;6.27;3.67;;;;;;;20.41;72.24;99825.02;126279;1099;104166;-78
2021/07/21 07:06:53;;;;;;;8.17;3.87;;;;;;;20.50;72.17;99834.66;126157;1098;104274;-78
2021/07/21 07:09:46;;;;;;;11.60;4.00;;;;;;;20.68;71.88;99834.41;126051;1099;104158;-79
2021/07/21 07:12:25;;;;;;;7.30;4.23;;;;;;;20.76;71.02;99832.48;125911;1099;104172;-78
2021/07/21 07:14:55;;;;;;;5.77;3.87;;;;;;;20.79;70.89;99840.44;126075;1099;104194;-79
2021/07/21 07:17:28;;;;;;;7.70;3.87;;;;;;;20.76;71.80;99837.81;126089;1099;104245;-78
2021/07/21 07:20:05;;;;;;;8.20;4.00;;;;;;;20.72;71.38;99835.23;126078;1099;104246;-79
2021/07/21 07:22:39;;;;;;;5.70;3.70;;;;;;;20.69;70.70;99836.14;126163;1099;104347;-79
2021/07/21 07:25:14;;;;;;;6.77;3.93;;;;;;;20.68;71.35;99839.73;126098;1099;104377;-77
2021/07/21 07:27:49;;;;;;;9.85;4.30;;;;;;;20.71;70.72;99847.69;125879;1099;104345;-78
2021/07/21 07:30:21;;;;;;;7.13;3.63;;;;;;;20.71;70.47;99853.02;126015;1099;104243;-77
2021/07/21 07:32:55;;;;;;;5.85;3.65;;;;;;;20.67;71.37;99848.63;126210;1098;104252;-79
2021/07/21 07:35:27;;;;;;;7.73;3.80;;;;;;;20.62;70.30;99850.47;126254;1099;104140;-79
2021/07/21 07:38:01;;;;;;;6.95;3.80;;;;;;;20.54;70.44;99847.92;126046;1099;104178;-79
2021/07/21 07:40:33;;;;;;;10.20;4.20;;;;;;;20.48;70.71;99859.54;126055;1099;104296;-77
2021/07/21 07:43:09;;;;;;;7.77;4.00;;;;;;;20.44;71.07;99857.84;126008;1099;104319;-78
2021/07/21 07:45:44;;;;;;;6.50;3.60;;;;;;;20.48;71.37;99856.01;125999;1099;104245;-77
2021/07/21 07:48:19;;;;;;;7.33;3.70;;;;;;;20.51;71.62;99852.43;125946;1099;104165;-78
2021/07/21 07:50:50;;;;;;;4.80;3.40;;;;;;;20.47;71.34;99848.91;126119;1099;104408;-76
2021/07/21 07:53:21;;;;;;;9.97;4.27;;;;;;;20.45;71.65;99848.06;126262;1099;104246;-77
2021/07/21 07:55:54;;;;;;;6.67;4.20;;;;;;;20.52;71.67;99859.50;126290;1098;104142;-79
2021/07/21 07:58:25;;;;;;;9.40;4.10;;;;;;;20.53;71.51;99848.81;126197;1099;104229;-77
2021/07/21 08:00:57;;;;;;;9.13;4.17;;;;;;;20.58;71.66;99851.41;126198;1099;104178;-76
2021/07/21 08:03:30;;;;;;;7.27;3.70;;;;;;;20.62;70.66;99856.66;126267;1099;104140;-79
2021/07/21 08:06:02;;;;;;;7.37;3.53;;;;;;;20.72;71.42;99846.76;126191;1099;104213;-76
2021/07/21 08:08:33;;;;;;;8.43;3.83;;;;;;;20.78;70.96;99848.45;125912;1099;104246;-77
2021/07/21 08:11:07;;;;;;;7.20;3.90;;;;;;;20.86;71.75;99851.86;125965;1099;104753;-79
2021/07/21 08:13:38;;;;;;;5.85;3.67;;;;;;;20.81;71.27;99854.61;126117;1099;104248;-78
2021/07/21 08:16:16;;;;;;;6.67;4.03;;;;;;;20.70;70.68;99858.38;126122;1099;104171;-78
2021/07/21 08:18:47;;;;;;;9.10;3.73;;;;;;;20.64;71.83;99865.54;126058;1099;104210;-77
2021/07/21 08:21:18;;;;;;;5.70;3.33;;;;;;;20.57;71.75;99877.19;126017;1099;104695;-77
2021/07/21 08:23:50;;;;;;;8.70;3.50;;;;;;;20.50;70.74;99861.31;126190;1099;104184;-78
2021/07/21 08:26:21;;;;;;;6.33;3.63;;;;;;;20.48;71.56;99856.87;126144;1099;104140;-78
2021/07/21 08:28:55;;;;;;;6.47;3.77;;;;;;;20.53;71.12;99864.80;126204;1099;104386;-78
2021/07/21 08:31:28;;;;;;;5.33;3.60;;;;;;;20.57;72.04;99870.95;126195;1099;104149;-77
2021/07/21 08:34:03;;;;;;;7.53;3.73;;;;;;;20.57;72.02;99866.53;126052;1099;104195;-77
2021/07/21 08:36:41;;;;;;;7.67;3.93;;;;;;;20.60;72.05;99892.23;126235;1099;104618;-77
2021/07/21 08:39:14;;;;;;;8.93;3.80;;;;;;;20.52;71.38;99871.06;126238;1099;104239;-77
2021/07/21 08:41:48;;;;;;;5.10;3.50;;;;;;;20.50;71.50;99871.97;126134;1099;104226;-78
2021/07/21 08:44:22;;;;;;;7.13;3.90;;;;;;;20.51;72.08;99879.08;126191;1099;104416;-77
2021/07/21 08:46:55;;;;;;;6.00;3.73;;;;;;;20.47;71.71;99864.89;125392;1099;104175;-76
2021/07/21 08:49:28;;;;;;;9.93;4.25;;;;;;;20.46;72.44;99869.35;125773;1099;104309;-79
2021/07/21 08:52:03;;;;;;;8.65;4.05;;;;;;;20.51;72.75;99873.75;126222;1099;104143;-77
2021/07/21 08:54:41;;;;;;;7.00;3.83;;;;;;;20.53;71.79;99877.26;126167;1099;104595;-78
2021/07/21 08:57:17;;;;;;;7.00;3.97;;;;;;;20.50;72.18;99869.31;126233;1098;104300;-78
2021/07/21 08:59:51;;;;;;;9.30;3.97;;;;;;;20.46;72.60;99873.81;125582;1099;104355;-78
2021/07/21 09:02:26;;;;;;;9.05;4.58;;;;;;;20.41;72.02;99863.22;126206;1099;104338;-79
2021/07/21 09:05:01;;;;;;;7.93;5.00;;;;;;;20.41;72.17;99864.98;125443;1099;104159;-78
2021/07/21 09:07:35;;;;;;;9.03;4.43;;;;;;;20.40;72.45;99872.11;126053;1099;104514;-77
2021/07/21 09:10:08;;;;;;;7.97;4.07;;;;;;;20.42;72.89;99867.62;125919;1099;105874;-77
2021/07/21 09:12:42;;;;;;;9.50;4.40;;;;;;;20.47;73.07;99867.56;126002;1099;104511;-77
2021/07/21 09:15:21;;;;;;;6.87;4.30;;;;;;;20.48;73.05;99862.20;126020;1099;104203;-77
2021/07/21 09:18:06;;;;;;;12.60;5.00;;;;;;;20.51;73.09;99857.76;125989;1099;104332;-77
2021/07/21 09:20:40;;;;;;;9.73;4.73;;;;;;;20.60;72.78;99857.58;126025;1099;104223;-78
2021/07/21 09:23:12;;;;;;;8.23;4.43;;;;;;;20.65;72.08;99864.65;126177;1099;104200;-76
2021/07/21 09:25:44;;;;;;;7.27;4.50;;;;;;;20.69;72.99;99867.27;126239;1099;104168;-76
2021/07/21 09:28:16;;;;;;;8.53;4.80;;;;;;;20.72;72.42;99872.55;126269;1099;104191;-79
2021/07/21 09:30:50;;;;;;;8.77;4.73;;;;;;;20.76;72.12;99874.27;126141;1099;104265;-76
2021/07/21 09:33:23;;;;;;;9.27;4.20;;;;;;;20.76;72.26;99877.81;126250;1099;104182;-79
2021/07/21 09:35:56;;;;;;;8.00;4.53;;;;;;;20.75;72.01;99876.03;126227;1097;104217;-78
2021/07/21 09:38:33;;;;;;;8.10;4.30;;;;;;;20.72;72.04;99883.21;126124;1098;104573;-77
2021/07/21 09:41:07;;;;;;;8.47;4.47;;;;;;;20.62;72.94;99887.78;126190;1099;104225;-78
2021/07/21 09:43:43;;;;;;;11.07;4.67;;;;;;;20.55;72.84;99881.64;126133;1099;104159;-78
2021/07/21 09:46:16;;;;;;;10.20;4.47;;;;;;;20.52;72.45;99879.05;126250;1097;104338;-77
2021/07/21 09:48:49;;;;;;;6.73;4.40;;;;;;;20.48;73.08;99882.66;126225;1099;104130;-76
2021/07/21 09:51:30;;;;;;;10.30;4.53;;;;;;;20.47;72.46;99887.12;126174;1097;104156;-78
2021/07/21 09:54:15;;;;;;;10.60;4.97;;;;;;;20.47;73.44;99883.55;126149;1099;104182;-77
2021/07/21 09:56:50;;;;;;;10.53;5.00;;;;;;;20.48;72.96;99879.99;126204;1099;104261;-78
2021/07/21 09:59:28;;;;;;;8.27;4.50;;;;;;;20.50;73.44;99885.30;126187;1099;104618;-76
2021/07/21 10:02:14;;;;;;;7.30;4.37;;;;;;;20.45;73.07;99883.57;126257;1098;104194;-76
2021/07/21 10:04:48;;;;;;;10.27;4.90;;;;;;;20.41;72.30;99873.88;126105;1099;104151;-75
2021/07/21 10:07:48;;;;;;;10.93;5.10;;;;;;;20.42;73.82;99886.28;126162;1099;104226;-75
2021/07/21 10:10:23;;;;;;;9.27;4.70;;;;;;;20.43;72.70;99877.39;126233;1099;104156;-78
2021/07/21 10:13:06;;;;;;;8.55;4.67;;;;;;;20.44;73.34;99879.16;126225;1099;104271;-78
2021/07/21 10:15:37;;;;;;;9.97;5.00;;;;;;;20.47;73.01;99868.46;126134;1099;104197;-77
2021/07/21 10:18:13;;;;;;;7.97;4.57;;;;;;;20.52;72.71;99871.06;126172;1099;104762;-77
2021/07/21 10:20:46;;;;;;;9.43;5.10;;;;;;;20.57;73.89;99873.63;125958;1097;104172;-75
2021/07/21 10:23:20;;;;;;;9.63;5.20;;;;;;;20.63;73.00;99870.86;125770;1099;104217;-76
2021/07/21 10:25:51;;;;;;;10.03;5.30;;;;;;;20.65;73.20;99869.11;126018;1099;104338;-75
2021/07/21 10:28:23;;;;;;;13.33;5.80;;;;;;;20.65;72.87;99863.78;126063;1099;104217;-77
2021/07/21 10:30:55;;;;;;;14.10;5.13;;;;;;;20.70;73.66;99872.58;125933;1099;104335;-77
2021/07/21 10:33:27;;;;;;;10.50;4.97;;;;;;;20.74;72.97;99873.39;125995;1099;104402;-77
2021/07/21 10:35:58;;;;;;;12.70;5.20;;;;;;;20.75;73.79;99872.50;125173;1102;104325;-76
2021/07/21 10:38:31;;;;;;;9.27;4.73;;;;;;;20.78;73.39;99870.66;125157;1102;104207;-76
2021/07/21 10:41:05;;;;;;;9.93;4.80;;;;;;;20.79;72.88;99871.56;125238;1102;104143;-77
2021/07/21 10:43:42;;;;;;;10.60;4.83;;;;;;;20.80;72.65;99875.96;125239;1102;104185;-76
2021/07/21 10:46:33;;;;;;;12.33;5.23;;;;;;;20.80;72.88;99867.96;125284;1102;104146;-78
2021/07/21 10:49:26;;;;;;;10.87;5.53;;;;;;;20.78;73.22;99873.32;125255;1102;104262;-75
2021/07/21 10:55:17;;;;;;;11.53;5.63;;;;;;;20.71;73.22;99870.78;125652;1100;104203;-77
2021/07/21 11:00:42;;;;;;;7.90;5.00;;;;;;;20.68;72.69;99873.48;126082;1099;104408;-78
2021/07/21 11:03:31;;;;;;;11.63;5.13;;;;;;;20.72;73.28;99873.42;125946;1099;104220;-76
2021/07/21 11:06:07;;;;;;;9.20;4.63;;;;;;;20.77;72.88;99870.68;126042;1099;104428;-76
2021/07/21 11:08:48;;;;;;;10.33;4.53;;;;;;;20.79;72.43;99884.89;126032;1099;104168;-76
2021/07/21 11:11:31;;;;;;;11.83;5.10;;;;;;;20.79;73.44;99879.55;126204;1098;104306;-76
2021/07/21 11:14:09;;;;;;;12.07;5.73;;;;;;;20.77;73.90;99881.34;126275;1099;104139;-77
2021/07/21 11:16:45;;;;;;;12.97;5.30;;;;;;;20.77;73.48;99881.34;126276;1099;104267;-77
2021/07/21 11:19:34;;;;;;;13.80;5.50;;;;;;;20.79;73.82;99872.42;126238;1099;104280;-78
2021/07/21 11:22:09;;;;;;;11.80;5.17;;;;;;;20.82;73.47;99876.84;126182;1099;104239;-77
2021/07/21 11:25:04;;;;;;;12.03;5.53;;;;;;;20.84;73.78;99872.35;126245;1099;104143;-76
2021/07/21 11:27:52;;;;;;;11.37;5.77;;;;;;;20.82;73.07;99882.17;126209;1097;104172;-76
2021/07/21 11:30:41;;;;;;;9.77;5.00;;;;;;;20.83;73.05;99878.58;126237;1098;104233;-77
2021/07/21 11:33:39;;;;;;;11.40;5.43;;;;;;;20.86;73.29;99874.99;126220;1099;104188;-77
2021/07/21 11:36:11;;;;;;;11.00;5.85;;;;;;;20.90;73.88;99874.05;126264;1098;104185;-77
2021/07/21 11:38:53;;;;;;;11.73;5.10;;;;;;;20.95;72.69;99869.51;126153;1099;104264;-77
2021/07/21 11:41:49;;;;;;;10.50;5.10;;;;;;;20.96;72.87;99882.81;126279;1099;104143;-76
2021/07/21 11:44:31;;;;;;;12.67;5.13;;;;;;;20.98;72.97;99874.80;126347;1099;104191;-76
2021/07/21 11:47:06;;;;;;;10.73;5.20;;;;;;;21.05;73.22;99876.45;126189;1099;104249;-74
2021/07/21 11:49:36;;;;;;;11.67;5.33;;;;;;;21.05;72.80;99875.56;126335;1099;104175;-75
2021/07/21 11:52:10;;;;;;;10.67;5.57;;;;;;;21.07;72.79;99871.97;126236;1099;104323;-77
2021/07/21 11:54:42;;;;;;;8.67;5.00;;;;;;;21.15;72.52;99883.38;126252;1099;104211;-77
2021/07/21 11:57:13;;;;;;;14.50;5.63;;;;;;;21.22;73.31;99880.59;126288;1099;104180;-76
2021/07/21 11:59:46;;;;;;;10.47;4.80;;;;;;;21.29;73.07;99877.80;126272;1099;104210;-77
2021/07/21 12:02:21;;;;;;;12.30;4.90;;;;;;;21.29;72.07;99888.47;126176;1099;104216;-74
2021/07/21 12:04:55;;;;;;;10.40;5.00;;;;;;;21.19;72.71;99885.09;126342;1098;104251;-76
2021/07/21 12:07:34;;;;;;;10.57;5.07;;;;;;;21.15;72.39;99883.38;126346;1099;104181;-76
2021/07/21 12:10:18;;;;;;;8.63;4.87;;;;;;;21.14;72.31;99880.73;126286;1098;104614;-77
2021/07/21 12:12:51;;;;;;;9.30;4.63;;;;;;;21.21;72.91;99882.39;126136;1099;104085;-75